Terminal Aerodrome Forecast
Issued by NWS Charleston, WV

Current Version | Previous Version | Graphics & Text | Print | Product List | Glossary Off
Versions: 1 2 3 4 5 6 7 8 9 10 11 12 13 14 15 16 17 18 19 20 21 22 23 24 25 26 27

072
FTUS41 KRLX 061735
TAFHTS
TAF
KHTS 061735Z 0618/0718 06004KT 3SM -RA SCT005 BKN009 OVC015
     FM062300 24008KT 6SM -RA BR OVC010
     FM070700 28007KT P6SM BKN015
     FM071100 30005KT P6SM BKN025
     FM071300 VRB03KT P6SM BKN200=

USA.gov is the U.S. government's official web portal to all federal, state and local government web resources and services.